Time;durP1;ratioP1;P1;durP2;ratioP2;P2;SDS_P1;SDS_P2;PMS_P1;PMS_P2;Temp;Humidity;BMP_temperature;BMP_pressure;BME280_temperature;BME280_humidity;BME280_pressure;Samples;Min_cycle;Max_cycle;Signal;HPM_P1;HPM_P2
2021/11/18 00:02:52;;;;;;;28.40;23.40;;;;;;;5.26;86.32;100878.67;207538;1335;140281;-73
2021/11/18 00:07:56;;;;;;;30.20;23.10;;;;;;;5.30;86.34;100871.03;207116;1331;138767;-74
2021/11/18 00:13:06;;;;;;;34.70;24.00;;;;;;;5.25;86.35;100867.02;207673;1328;139093;-75
2021/11/18 00:18:12;;;;;;;27.10;21.50;;;;;;;5.24;86.50;100873.40;208413;1328;138137;-74
2021/11/18 00:23:15;;;;;;;27.70;19.60;;;;;;;5.29;86.12;100880.89;209177;1325;137095;-74
2021/11/18 00:28:16;;;;;;;27.20;21.10;;;;;;;5.25;86.08;100878.92;210189;1328;138542;-73
2021/11/18 00:33:19;;;;;;;26.50;20.50;;;;;;;5.23;86.40;100880.07;209699;1325;138259;-72
2021/11/18 00:38:21;;;;;;;24.00;19.70;;;;;;;5.25;86.35;100877.46;208543;1332;137794;-73
2021/11/18 00:48:42;;;;;;;28.80;23.50;;;;;;;5.16;86.68;100877.57;208935;1328;138270;-73
2021/11/18 00:53:51;;;;;;;23.10;18.40;;;;;;;5.31;86.57;100878.61;209062;1328;138988;-73
2021/11/18 00:59:02;;;;;;;23.20;17.90;;;;;;;5.34;86.55;100878.23;209211;1317;139298;-77
2021/11/18 01:04:10;;;;;;;22.90;19.30;;;;;;;5.28;86.76;100880.60;208717;1327;138623;-74
2021/11/18 01:09:12;;;;;;;18.80;14.90;;;;;;;5.35;86.32;100884.11;208906;1326;139488;-76
2021/11/18 01:14:16;;;;;;;24.30;20.50;;;;;;;5.38;86.37;100877.79;208047;1326;139495;-75
2021/11/18 01:19:18;;;;;;;20.10;17.30;;;;;;;5.34;86.35;100872.52;209799;1312;138180;-75
2021/11/18 01:24:27;;;;;;;18.20;16.30;;;;;;;5.24;86.60;100880.71;209668;1322;138542;-72
2021/11/18 01:29:32;;;;;;;19.30;15.60;;;;;;;5.14;87.13;100883.14;210316;1320;139484;-73
2021/11/18 01:34:34;;;;;;;18.90;15.50;;;;;;;5.17;87.06;100886.79;210144;1319;139246;-74
2021/11/18 01:39:37;;;;;;;20.10;16.00;;;;;;;5.12;87.33;100879.77;210021;1320;139393;-75
2021/11/18 01:44:42;;;;;;;17.90;13.80;;;;;;;5.11;87.66;100886.98;210107;1323;138633;-73
2021/11/18 01:49:47;;;;;;;18.30;13.80;;;;;;;5.10;88.00;100887.63;211054;1319;139057;-73
2021/11/18 01:54:54;;;;;;;17.60;13.70;;;;;;;5.08;88.49;100889.81;209674;1322;138705;-73
2021/11/18 02:00:00;;;;;;;14.90;11.70;;;;;;;5.02;89.12;100891.11;209436;1320;138431;-72
2021/11/18 02:05:20;;;;;;;19.50;15.80;;;;;;;4.97;90.03;100888.33;210859;1319;138743;-71
2021/11/18 02:10:48;;;;;;;23.00;18.70;;;;;;;4.95;90.57;100892.64;210674;1308;138633;-72
2021/11/18 02:15:57;;;;;;;20.10;15.50;;;;;;;4.92;90.54;100905.29;209475;1319;138813;-74
2021/11/18 02:21:03;;;;;;;21.00;16.80;;;;;;;4.93;90.72;100907.45;209686;1319;142042;-72
2021/11/18 02:26:04;;;;;;;17.30;13.10;;;;;;;5.00;90.29;100912.08;209877;1320;140911;-73
2021/11/18 02:31:21;;;;;;;22.50;19.20;;;;;;;4.93;90.72;100916.55;210195;1319;138282;-73
2021/11/18 02:36:27;;;;;;;18.50;15.40;;;;;;;4.90;91.12;100919.36;210408;1319;139560;-70
2021/11/18 02:41:29;;;;;;;21.50;16.50;;;;;;;4.84;91.88;100912.92;209628;1320;139622;-72
2021/11/18 02:46:36;;;;;;;21.30;16.80;;;;;;;4.87;91.91;100910.80;210336;1319;138731;-75
2021/11/18 02:51:42;;;;;;;17.90;14.70;;;;;;;4.86;91.86;100917.00;209026;1319;138791;-73
2021/11/18 02:56:44;;;;;;;21.10;15.80;;;;;;;4.83;92.04;100916.67;208790;1319;138787;-72
2021/11/18 03:01:46;;;;;;;17.70;14.60;;;;;;;4.85;92.02;100924.04;208995;1319;139363;-74
2021/11/18 03:06:53;;;;;;;14.40;12.40;;;;;;;4.85;92.29;100921.63;209561;1319;142061;-75
2021/11/18 03:11:55;;;;;;;23.80;18.00;;;;;;;4.95;92.09;100923.25;209829;1320;138881;-72
2021/11/18 03:16:57;;;;;;;17.70;14.00;;;;;;;5.07;91.10;100907.73;210308;1319;138145;-73
2021/11/18 03:21:59;;;;;;;19.90;15.60;;;;;;;4.97;91.38;100915.89;209627;1319;138580;-72
2021/11/18 03:27:01;;;;;;;16.10;13.90;;;;;;;5.01;91.25;100920.59;209071;1320;139705;-73
2021/11/18 03:32:04;;;;;;;16.60;12.40;;;;;;;4.95;91.16;100929.16;209763;1319;138213;-73
2021/11/18 03:37:06;;;;;;;17.00;14.60;;;;;;;4.97;91.54;100936.02;209853;1320;138698;-72
2021/11/18 03:42:10;;;;;;;17.50;13.90;;;;;;;5.01;90.83;100932.04;210930;1325;138646;-72
2021/11/18 03:47:20;;;;;;;16.90;13.30;;;;;;;5.03;90.88;100934.20;210809;1323;139069;-72
2021/11/18 03:52:22;;;;;;;19.50;14.50;;;;;;;5.10;90.56;100932.14;209106;1319;138832;-73
2021/11/18 03:57:27;;;;;;;15.50;12.90;;;;;;;5.05;90.47;100927.73;209921;1324;138057;-73
2021/11/18 04:02:37;;;;;;;13.40;10.90;;;;;;;5.06;90.69;100938.38;210388;1320;139102;-73
2021/11/18 04:07:40;;;;;;;17.80;15.00;;;;;;;5.08;90.35;100945.05;210111;1320;138705;-72
2021/11/18 04:12:43;;;;;;;18.90;15.90;;;;;;;5.08;90.38;100947.98;209553;1319;138927;-73
2021/11/18 04:17:49;;;;;;;19.10;15.10;;;;;;;5.06;90.47;100949.56;209815;1322;139234;-71
2021/11/18 04:22:56;;;;;;;17.40;12.30;;;;;;;5.09;90.39;100952.77;210124;1319;139536;-74
2021/11/18 04:27:58;;;;;;;18.10;13.90;;;;;;;5.11;90.44;100954.62;210160;1319;138672;-74
2021/11/18 04:33:00;;;;;;;18.80;14.00;;;;;;;5.12;90.42;100951.05;210837;1320;138323;-73
2021/11/18 04:38:03;;;;;;;19.10;14.70;;;;;;;5.11;90.31;100953.91;210229;1319;139031;-70
2021/11/18 04:43:05;;;;;;;17.60;14.30;;;;;;;5.15;90.09;100958.52;211239;1309;138963;-72
2021/11/18 04:48:09;;;;;;;23.20;14.90;;;;;;;5.15;89.70;100953.46;209584;1323;138986;-74
2021/11/18 04:53:11;;;;;;;22.30;16.00;;;;;;;5.15;89.60;100954.33;209950;1322;139438;-74
2021/11/18 04:58:19;;;;;;;22.50;18.50;;;;;;;5.22;89.33;100957.19;210152;1325;139409;-74
2021/11/18 05:03:25;;;;;;;21.10;15.80;;;;;;;5.31;89.29;100957.31;209773;1323;138624;-74
2021/11/18 05:08:27;;;;;;;19.70;14.90;;;;;;;5.36;88.98;100958.31;209839;1322;139224;-74
2021/11/18 05:13:31;;;;;;;19.30;16.20;;;;;;;5.36;89.13;100959.50;211773;1323;138851;-74
2021/11/18 05:18:35;;;;;;;21.60;16.30;;;;;;;5.38;88.82;100963.44;210890;1326;138673;-74
2021/11/18 05:23:39;;;;;;;22.80;17.30;;;;;;;5.33;89.25;100961.66;209903;1322;138887;-73
2021/11/18 05:28:47;;;;;;;19.30;16.40;;;;;;;5.27;89.60;100959.46;209747;1323;138873;-72
2021/11/18 05:33:55;;;;;;;20.30;15.20;;;;;;;5.26;89.86;100962.34;210678;1309;139240;-74
2021/11/18 05:38:59;;;;;;;22.80;17.60;;;;;;;5.24;90.35;100973.48;209860;1323;138433;-74
2021/11/18 05:44:03;;;;;;;26.30;18.10;;;;;;;5.22;90.65;100982.73;209779;1322;138469;-76
2021/11/18 05:49:06;;;;;;;24.00;17.30;;;;;;;5.22;91.09;100984.45;209924;1325;139347;-73
2021/11/18 05:54:08;;;;;;;27.10;18.90;;;;;;;5.25;91.05;100987.56;209213;1322;139489;-75
2021/11/18 05:59:17;;;;;;;22.70;17.10;;;;;;;5.21;91.22;100985.92;209481;1322;138728;-75
2021/11/18 06:04:28;;;;;;;21.20;14.80;;;;;;;5.20;90.89;100985.65;209393;1322;138595;-75
2021/11/18 06:09:38;;;;;;;24.30;18.00;;;;;;;5.23;90.79;100985.98;209934;1322;139008;-74
2021/11/18 06:14:40;;;;;;;25.70;17.20;;;;;;;5.28;90.51;100982.48;210419;1322;138885;-75
2021/11/18 06:19:44;;;;;;;26.60;20.20;;;;;;;5.32;90.25;100988.84;210526;1322;138923;-75
2021/11/18 06:24:51;;;;;;;20.60;16.20;;;;;;;5.29;90.26;100991.64;211461;1322;138770;-75
2021/11/18 06:29:57;;;;;;;23.00;16.20;;;;;;;5.27;90.43;100998.59;209852;1322;138565;-74
2021/11/18 06:34:59;;;;;;;20.40;16.10;;;;;;;5.34;89.93;100998.49;210423;1322;139660;-75
2021/11/18 06:40:04;;;;;;;22.20;16.50;;;;;;;5.37;89.57;101004.20;209548;1325;138786;-74
2021/11/18 06:45:12;;;;;;;22.60;17.00;;;;;;;5.32;89.79;101004.34;210358;1310;139128;-74
2021/11/18 06:50:20;;;;;;;21.60;17.70;;;;;;;5.33;90.48;101010.45;209543;1322;139011;-76
2021/11/18 06:55:22;;;;;;;24.60;19.00;;;;;;;5.36;90.33;101022.61;210913;1309;139705;-75
2021/11/18 07:00:27;;;;;;;19.00;15.30;;;;;;;5.31;90.72;101026.80;209587;1325;139006;-75
2021/11/18 07:05:34;;;;;;;23.70;18.40;;;;;;;5.28;91.10;101030.73;209839;1322;138968;-74
2021/11/18 07:10:38;;;;;;;23.10;18.20;;;;;;;5.29;91.27;101026.06;209632;1325;241672;-74
2021/11/18 07:15:46;;;;;;;23.10;17.60;;;;;;;5.29;91.32;101021.89;210009;1320;138696;-75
2021/11/18 07:20:57;;;;;;;21.50;17.00;;;;;;;5.22;91.77;101020.79;208925;1322;138785;-75
2021/11/18 07:26:00;;;;;;;20.10;15.60;;;;;;;5.25;91.49;101025.86;208931;1325;139484;-75
2021/11/18 07:31:02;;;;;;;19.90;16.10;;;;;;;5.32;91.15;101023.79;209987;1322;139343;-74
2021/11/18 07:36:09;;;;;;;19.70;14.60;;;;;;;5.37;91.06;101021.33;208871;1328;139008;-75
2021/11/18 07:41:16;;;;;;;21.20;16.60;;;;;;;5.39;90.70;101029.39;210051;1312;138688;-76
2021/11/18 07:46:18;;;;;;;21.60;14.10;;;;;;;5.36;90.83;101034.02;209642;1322;138567;-74
2021/11/18 07:51:23;;;;;;;17.00;14.90;;;;;;;5.34;91.07;101029.41;210207;1322;139175;-76
2021/11/18 07:56:25;;;;;;;18.40;13.40;;;;;;;5.35;91.02;101030.52;210519;1310;139625;-75
2021/11/18 08:01:27;;;;;;;18.20;15.40;;;;;;;5.40;90.80;101039.13;211163;1322;139105;-76
2021/11/18 08:06:29;;;;;;;20.20;16.20;;;;;;;5.50;90.55;101040.04;210695;1322;139137;-74
2021/11/18 08:22:27;;;;;;;18.20;14.50;;;;;;;5.80;88.85;101051.80;206850;1354;634991;-74
2021/11/18 08:27:29;;;;;;;17.50;12.90;;;;;;;5.71;88.16;101063.08;207652;1335;137840;-76
2021/11/18 08:32:31;;;;;;;17.40;13.10;;;;;;;5.68;87.81;101069.08;208357;1331;138736;-75
2021/11/18 08:37:32;;;;;;;15.10;10.90;;;;;;;5.72;87.55;101071.77;208353;1328;138428;-75
2021/11/18 08:42:34;;;;;;;16.70;12.50;;;;;;;5.72;87.10;101077.84;209786;1328;138986;-76
2021/11/18 08:47:39;;;;;;;15.50;12.00;;;;;;;5.73;87.00;101080.98;210198;1320;139009;-72
2021/11/18 08:52:40;;;;;;;14.00;11.20;;;;;;;5.77;86.81;101092.73;208607;1329;139126;-77
2021/11/18 08:57:44;;;;;;;13.50;11.30;;;;;;;5.84;86.28;101094.84;208943;1328;138697;-77
2021/11/18 09:02:46;;;;;;;17.10;12.60;;;;;;;5.89;85.96;101098.02;209781;1329;139085;-75
2021/11/18 09:07:51;;;;;;;14.40;11.80;;;;;;;6.02;85.71;101085.41;208985;1329;139203;-77
2021/11/18 09:12:58;;;;;;;20.90;15.60;;;;;;;6.13;85.23;101077.48;209094;1335;139408;-77
2021/11/18 09:17:59;;;;;;;16.00;11.20;;;;;;;6.19;84.71;101082.88;209765;1318;138544;-73
2021/11/18 09:23:01;;;;;;;15.70;11.50;;;;;;;6.16;84.69;101087.94;208090;1331;138640;-76
2021/11/18 09:28:08;;;;;;;14.50;11.30;;;;;;;5.94;85.71;101098.58;209042;1332;138180;-75
2021/11/18 09:33:13;;;;;;;15.90;11.40;;;;;;;5.96;85.93;101099.14;208510;1322;139515;-77
2021/11/18 09:38:18;;;;;;;16.90;11.50;;;;;;;5.96;85.95;101094.76;207745;1332;139689;-78
2021/11/18 09:49:32;;;;;;;15.60;12.10;;;;;;;6.12;84.93;101083.70;208378;1324;138884;-76
2021/11/18 09:54:55;;;;;;;15.50;11.30;;;;;;;6.21;84.51;101076.77;212325;1320;138861;-71
2021/11/18 10:00:16;;;;;;;11.60;9.60;;;;;;;6.23;83.83;101086.80;212183;1319;138741;-75
2021/11/18 10:05:20;;;;;;;14.40;11.30;;;;;;;6.20;83.80;101079.80;211072;1319;138871;-75
2021/11/18 10:10:30;;;;;;;12.40;9.70;;;;;;;6.23;83.70;101076.10;211363;1319;137919;-76
2021/11/18 10:15:44;;;;;;;14.20;9.80;;;;;;;6.23;83.26;101070.32;210280;1318;138835;-74
2021/11/18 10:21:20;;;;;;;13.40;9.40;;;;;;;6.21;83.06;101069.08;209929;1320;138201;-74
2021/11/18 10:26:35;;;;;;;11.90;8.90;;;;;;;6.27;82.79;101070.59;210789;1320;139139;-75
2021/11/18 10:32:09;;;;;;;13.20;8.50;;;;;;;6.29;82.85;101082.30;210310;1322;138390;-73
2021/11/18 10:37:25;;;;;;;14.60;8.50;;;;;;;6.26;81.96;101089.35;210832;1322;138551;-75
2021/11/18 10:42:40;;;;;;;12.90;8.00;;;;;;;6.30;81.81;101084.87;211096;1309;138368;-77
2021/11/18 10:48:05;;;;;;;13.70;9.00;;;;;;;6.41;82.08;101075.70;210645;1309;138616;-72
2021/11/18 10:53:14;;;;;;;;;;;;;;;6.47;81.78;101061.94;210854;1319;138326;-78
2021/11/18 10:58:25;;;;;;;11.80;9.20;;;;;;;6.49;80.90;101050.98;209707;1318;124944;-76
2021/11/18 11:03:26;;;;;;;14.40;7.90;;;;;;;6.58;80.27;101058.85;210698;1319;138444;-76
2021/11/18 11:08:32;;;;;;;11.30;6.40;;;;;;;6.55;79.00;101070.48;210775;1320;138608;-75
2021/11/18 11:14:07;;;;;;;14.30;7.50;;;;;;;6.53;79.07;101078.67;209904;1319;138611;-75
2021/11/18 11:19:27;;;;;;;7.50;6.10;;;;;;;6.53;79.19;101069.77;210324;1319;139283;-74
2021/11/18 11:24:33;;;;;;;13.10;6.70;;;;;;;6.68;77.94;101070.64;210489;1322;140257;-76
2021/11/18 11:29:53;;;;;;;11.00;6.50;;;;;;;6.65;76.76;101070.77;209835;1320;138319;-75
2021/11/18 11:35:16;;;;;;;9.40;5.10;;;;;;;6.75;74.84;101069.22;211747;1310;138209;-74
2021/11/18 11:40:42;;;;;;;6.50;4.90;;;;;;;6.87;73.98;101063.27;210087;1319;138756;-74
2021/11/18 11:46:19;;;;;;;8.40;6.00;;;;;;;6.81;74.47;101062.14;210708;1319;138421;-76
2021/11/18 11:51:31;;;;;;;11.20;6.70;;;;;;;6.70;75.79;101059.27;210352;1319;138205;-76
2021/11/18 11:56:43;;;;;;;10.20;6.70;;;;;;;6.59;76.86;101066.70;209715;1322;139079;-75
2021/11/18 12:02:07;;;;;;;10.00;6.80;;;;;;;6.51;77.28;101063.73;209598;1319;138141;-71
2021/11/18 12:07:45;;;;;;;10.80;7.40;;;;;;;6.46;77.38;101059.23;210552;1319;138798;-75
2021/11/18 12:13:06;;;;;;;10.60;7.40;;;;;;;6.47;77.24;101053.16;210014;1319;138280;-74
2021/11/18 12:18:23;;;;;;;11.70;5.70;;;;;;;6.49;77.41;101048.35;209481;1319;138548;-75
2021/11/18 12:23:57;;;;;;;11.90;6.90;;;;;;;6.53;77.16;101047.17;211035;1319;139104;-75
2021/11/18 12:29:31;;;;;;;12.70;6.90;;;;;;;6.53;77.28;101045.23;210573;1311;138551;-77
2021/11/18 12:34:45;;;;;;;8.50;6.00;;;;;;;6.55;77.08;101030.00;210623;1320;138804;-72
2021/11/18 12:40:29;;;;;;;14.50;6.50;;;;;;;6.83;76.34;101031.81;211924;1309;137893;-76
2021/11/18 12:51:30;;;;;;;8.70;7.00;;;;;;;7.11;75.64;101011.02;210370;1324;138702;-77
2021/11/18 12:56:52;;;;;;;15.40;7.70;;;;;;;7.14;75.35;101008.67;209704;1322;138169;-75
2021/11/18 13:02:00;;;;;;;10.20;5.70;;;;;;;6.87;76.64;101002.99;210130;1322;138924;-74
2021/11/18 13:07:04;;;;;;;8.20;6.60;;;;;;;6.79;76.61;100991.67;209899;1323;139093;-77
2021/11/18 13:12:25;;;;;;;12.20;6.50;;;;;;;6.77;76.97;100988.86;209761;1325;137892;-76
2021/11/18 13:17:53;;;;;;;11.40;6.90;;;;;;;6.73;77.40;100992.14;210439;1323;138917;-78
2021/11/18 13:23:19;;;;;;;12.80;6.30;;;;;;;6.68;77.14;100993.23;209657;1321;138531;-76
2021/11/18 13:28:29;;;;;;;11.70;6.90;;;;;;;6.66;77.28;101001.59;210260;1325;139806;-76
2021/11/18 13:33:39;;;;;;;9.60;5.60;;;;;;;6.63;77.76;100995.97;209581;1324;138890;-78
2021/11/18 13:39:22;;;;;;;10.70;6.40;;;;;;;6.64;77.72;100997.89;210151;1321;138384;-75
2021/11/18 13:44:35;;;;;;;15.20;6.80;;;;;;;6.65;77.83;100993.59;209574;1321;139032;-78
2021/11/18 13:49:46;;;;;;;8.50;5.00;;;;;;;6.63;77.82;101001.95;211143;1311;138045;-75
2021/11/18 13:54:53;;;;;;;10.60;6.00;;;;;;;6.64;77.84;100997.33;210418;1328;138693;-75
2021/11/18 14:00:20;;;;;;;10.30;6.40;;;;;;;6.65;77.75;101002.17;209342;1322;138773;-77
2021/11/18 14:05:32;;;;;;;10.60;6.00;;;;;;;6.66;77.77;101005.98;211096;1322;138589;-76
2021/11/18 14:10:44;;;;;;;11.20;6.30;;;;;;;6.69;77.56;100997.38;210504;1322;138499;-74
2021/11/18 14:16:33;;;;;;;7.70;6.00;;;;;;;6.66;77.63;100996.52;209593;1322;139081;-76
2021/11/18 14:22:12;;;;;;;10.40;6.60;;;;;;;6.68;77.73;100998.28;209926;1322;138367;-79
2021/11/18 14:27:33;;;;;;;11.00;6.00;;;;;;;6.59;78.18;101006.12;210587;1322;139294;-75
2021/11/18 14:33:03;;;;;;;13.90;6.80;;;;;;;6.58;78.12;101012.48;210497;1322;138637;-75
2021/11/18 14:38:08;;;;;;;13.10;7.10;;;;;;;6.60;78.46;101015.49;209546;1320;137882;-76
2021/11/18 14:43:32;;;;;;;14.20;6.80;;;;;;;6.57;78.31;101017.81;209981;1320;138536;-74
2021/11/18 14:48:55;;;;;;;12.50;6.50;;;;;;;6.62;78.24;101030.55;210468;1320;138709;-77
2021/11/18 14:53:57;;;;;;;15.10;7.00;;;;;;;6.65;78.05;101038.08;209217;1322;138300;-76
2021/11/18 14:59:02;;;;;;;11.00;6.20;;;;;;;6.65;78.54;101031.91;209699;1325;138210;-74
2021/11/18 15:04:11;;;;;;;16.30;6.40;;;;;;;6.67;78.81;101021.45;210516;1322;138369;-77
2021/11/18 15:09:19;;;;;;;11.50;6.50;;;;;;;6.61;79.45;101019.12;209796;1326;138088;-75
2021/11/18 15:14:21;;;;;;;10.40;6.70;;;;;;;6.57;79.56;101011.30;210066;1323;138862;-77
2021/11/18 15:19:30;;;;;;;11.90;7.70;;;;;;;6.60;79.39;101005.47;210092;1320;139027;-76
2021/11/18 15:24:40;;;;;;;13.60;8.00;;;;;;;6.63;79.12;101014.18;210059;1320;139036;-61
2021/11/18 15:29:44;;;;;;;13.50;6.90;;;;;;;6.67;79.20;101015.50;209691;1322;139297;-77
2021/11/18 15:34:47;;;;;;;14.20;8.70;;;;;;;6.72;78.61;101005.17;210619;1320;138506;-77
2021/11/18 15:39:50;;;;;;;15.10;8.10;;;;;;;6.70;78.80;100995.88;209868;1323;138476;-75
2021/11/18 15:44:56;;;;;;;19.80;9.30;;;;;;;6.71;78.92;100996.30;209763;1322;138635;-78
2021/11/18 15:50:04;;;;;;;15.50;9.20;;;;;;;6.68;79.33;101006.48;210549;1322;138291;-76
2021/11/18 15:55:13;;;;;;;16.30;9.30;;;;;;;6.69;79.60;101013.84;210046;1326;140457;-78
2021/11/18 16:00:28;;;;;;;15.60;10.20;;;;;;;6.72;79.45;101009.69;211173;1322;138938;-76
2021/11/18 16:05:32;;;;;;;16.70;10.40;;;;;;;6.70;80.10;101008.16;210163;1320;138434;-75
2021/11/18 16:10:54;;;;;;;12.20;8.80;;;;;;;6.74;80.09;101000.63;209948;1322;138360;-74
2021/11/18 16:16:00;;;;;;;20.80;11.60;;;;;;;6.78;79.89;100995.98;209550;1322;139106;-75
2021/11/18 16:21:07;;;;;;;19.70;11.60;;;;;;;6.78;80.24;100995.06;209820;1322;138594;-75
2021/11/18 16:26:12;;;;;;;14.70;10.70;;;;;;;6.81;79.88;100981.88;210783;1310;140209;-77
2021/11/18 16:31:14;;;;;;;15.50;10.10;;;;;;;6.82;80.04;100987.23;211162;1312;138844;-75
2021/11/18 16:36:17;;;;;;;18.50;10.20;;;;;;;6.80;80.09;100997.19;211089;1318;259156;-75
2021/11/18 16:41:28;;;;;;;16.30;11.50;;;;;;;6.85;80.16;100983.52;210677;1319;138454;-74
2021/11/18 16:46:30;;;;;;;15.10;10.10;;;;;;;6.83;80.37;100995.39;209130;1321;138631;-75
2021/11/18 16:51:43;;;;;;;15.10;10.60;;;;;;;6.87;80.33;101002.66;210338;1319;138699;-75
2021/11/18 16:56:54;;;;;;;16.30;9.70;;;;;;;6.88;80.41;101010.12;210226;1320;138673;-76
2021/11/18 17:02:12;;;;;;;13.60;8.50;;;;;;;6.89;80.36;101016.83;210976;1320;138245;-76
2021/11/18 17:07:14;;;;;;;13.40;8.90;;;;;;;6.93;80.50;101003.45;211105;1322;138919;-76
2021/11/18 17:12:21;;;;;;;14.20;7.70;;;;;;;6.93;80.72;100992.71;210670;1320;138792;-74
2021/11/18 17:17:26;;;;;;;12.50;8.20;;;;;;;6.93;80.84;100983.83;210977;1321;139597;-76
2021/11/18 17:27:41;;;;;;;15.90;8.60;;;;;;;6.94;80.77;100992.30;215419;1320;139071;-74
2021/11/18 17:32:43;;;;;;;11.70;7.40;;;;;;;6.98;80.62;100990.59;215051;1322;138738;-76
2021/11/18 17:37:45;;;;;;;11.60;7.20;;;;;;;6.96;80.58;100988.34;215650;1322;138725;-77
2021/11/18 17:42:52;;;;;;;15.70;8.80;;;;;;;6.96;80.76;100985.51;213763;1322;139498;-72
2021/11/18 17:48:01;;;;;;;14.70;9.70;;;;;;;6.99;80.61;100981.27;215355;1322;139008;-75
2021/11/18 17:53:04;;;;;;;13.80;8.10;;;;;;;6.93;80.85;100963.79;214938;1319;138768;-75
2021/11/18 17:58:08;;;;;;;13.90;7.60;;;;;;;6.88;81.48;100951.23;215908;1320;138368;-77
2021/11/18 18:03:11;;;;;;;14.50;8.70;;;;;;;6.86;81.42;100941.58;214388;1320;139389;-76
2021/11/18 18:08:14;;;;;;;14.30;8.80;;;;;;;6.89;81.11;100930.29;215141;1322;138106;-75
2021/11/18 18:13:19;;;;;;;16.40;9.00;;;;;;;6.87;81.62;100927.31;215276;1325;138581;-74
2021/11/18 18:18:24;;;;;;;14.60;8.10;;;;;;;6.92;81.18;100934.81;215301;1322;139924;-75
2021/11/18 18:23:26;;;;;;;14.80;9.00;;;;;;;6.97;81.21;100935.70;214911;1323;138340;-75
2021/11/18 18:28:28;;;;;;;14.30;10.40;;;;;;;6.95;81.27;100936.52;215498;1322;139012;-76
2021/11/18 18:33:31;;;;;;;14.60;8.10;;;;;;;6.97;81.20;100942.16;214543;1324;139617;-73
2021/11/18 18:38:32;;;;;;;11.50;8.60;;;;;;;7.02;81.01;100939.30;215768;1322;139151;-75
2021/11/18 18:43:35;;;;;;;12.60;8.30;;;;;;;7.02;81.30;100934.55;214440;1322;138847;-73
2021/11/18 18:48:41;;;;;;;12.10;8.80;;;;;;;7.03;81.31;100930.46;214973;1320;138427;-75
2021/11/18 18:53:43;;;;;;;14.40;8.90;;;;;;;7.03;81.29;100931.34;215317;1317;138858;-75
2021/11/18 18:58:51;;;;;;;12.10;9.00;;;;;;;7.05;81.17;100914.17;215470;1319;138526;-76
2021/11/18 19:03:56;;;;;;;12.50;9.30;;;;;;;7.05;81.41;100904.38;213414;1327;138871;-76
2021/11/18 19:08:59;;;;;;;13.30;9.30;;;;;;;7.06;81.34;100905.67;215548;1317;139712;-76
2021/11/18 19:14:00;;;;;;;12.90;9.10;;;;;;;7.08;81.33;100918.54;214596;1319;138697;-75
2021/11/18 19:19:07;;;;;;;12.10;7.30;;;;;;;7.10;81.27;100913.94;215776;1319;138567;-74
2021/11/18 19:24:09;;;;;;;14.10;8.60;;;;;;;7.13;81.31;100917.41;214619;1319;138291;-74
2021/11/18 19:29:27;;;;;;;13.90;9.00;;;;;;;7.14;81.44;100917.55;214504;1323;139224;-75
2021/11/18 19:34:41;;;;;;;13.10;9.30;;;;;;;7.15;81.53;100910.28;215562;1320;139874;-77
2021/11/18 19:39:48;;;;;;;13.00;8.30;;;;;;;7.16;81.70;100898.81;215653;1316;138652;-75
2021/11/18 19:44:53;;;;;;;15.80;9.30;;;;;;;7.11;81.87;100890.95;213355;1320;139103;-75
2021/11/18 19:49:59;;;;;;;18.30;9.60;;;;;;;7.16;81.78;100884.11;214275;1319;139375;-75
2021/11/18 19:55:05;;;;;;;17.40;10.80;;;;;;;7.18;81.92;100884.84;213899;1320;140003;-75
2021/11/18 20:00:23;;;;;;;14.10;9.20;;;;;;;7.19;82.13;100867.77;215728;1319;138965;-75
2021/11/18 20:05:27;;;;;;;16.30;10.50;;;;;;;7.19;82.23;100860.60;215487;1319;139213;-76
2021/11/18 20:10:28;;;;;;;14.50;10.20;;;;;;;7.24;82.21;100858.27;215662;1319;141788;-75
2021/11/18 20:15:33;;;;;;;15.20;10.30;;;;;;;7.24;82.20;100857.88;215527;1317;138522;-78
2021/11/18 20:20:35;;;;;;;15.00;9.80;;;;;;;7.25;82.37;100843.58;215739;1319;139388;-75
2021/11/18 20:25:37;;;;;;;21.40;11.00;;;;;;;7.33;82.49;100840.54;213599;1323;139443;-76
2021/11/18 20:30:50;;;;;;;20.60;12.00;;;;;;;7.43;82.03;100835.55;215650;1322;138827;-76
2021/11/18 20:35:56;;;;;;;16.90;11.20;;;;;;;7.41;82.00;100823.95;214428;1322;139213;-76
2021/11/18 20:41:01;;;;;;;;;;;;;;;7.33;82.52;100814.91;215538;1319;139233;-76
2021/11/18 20:46:07;;;;;;;14.60;10.50;;;;;;;7.35;82.47;100803.91;214882;1319;125002;-74
2021/11/18 20:51:20;;;;;;;19.80;10.90;;;;;;;7.36;82.65;100791.86;215116;1319;140649;-76
2021/11/18 20:56:24;;;;;;;15.30;10.20;;;;;;;7.34;83.22;100785.41;215589;1322;139021;-75
2021/11/18 21:01:35;;;;;;;13.10;9.50;;;;;;;7.33;83.31;100775.50;215533;1319;139414;-76
2021/11/18 21:06:38;;;;;;;18.30;11.30;;;;;;;7.30;83.58;100774.02;214973;1319;138348;-74
2021/11/18 21:11:39;;;;;;;16.40;11.60;;;;;;;7.29;83.55;100783.19;215188;1317;139107;-75
2021/11/18 21:16:48;;;;;;;18.80;10.80;;;;;;;7.33;83.41;100772.55;215375;1314;139239;-76
2021/11/18 21:21:54;;;;;;;16.20;11.80;;;;;;;7.35;83.25;100762.38;215983;1322;141474;-74
2021/11/18 21:26:56;;;;;;;;;;;;;;;7.36;82.98;100752.78;214925;1323;139041;-78
2021/11/18 21:32:00;;;;;;;16.40;9.90;;;;;;;7.35;82.99;100747.60;215825;1320;126529;-76
2021/11/18 21:37:07;;;;;;;16.40;11.00;;;;;;;7.37;83.02;100742.75;214346;1322;139184;-76
2021/11/18 21:42:15;;;;;;;15.30;10.90;;;;;;;7.36;83.31;100731.43;215711;1322;139753;-76
2021/11/18 21:47:22;;;;;;;11.50;8.20;;;;;;;7.34;83.13;100737.72;215392;1320;138499;-75
2021/11/18 21:52:24;;;;;;;12.80;8.90;;;;;;;7.35;83.25;100729.42;215723;1321;139515;-75
2021/11/18 21:57:34;;;;;;;10.80;8.40;;;;;;;7.36;83.10;100730.02;215841;1314;139203;-76
2021/11/18 22:02:36;;;;;;;12.10;7.80;;;;;;;7.36;82.93;100723.75;215917;1321;138719;-76
2021/11/18 22:07:44;;;;;;;17.80;9.00;;;;;;;7.39;82.89;100716.66;215709;1322;142342;-75
2021/11/18 22:12:48;;;;;;;11.70;8.00;;;;;;;7.39;82.60;100705.41;215627;1320;138881;-76
2021/11/18 22:17:59;;;;;;;14.40;8.50;;;;;;;7.40;82.45;100703.05;215583;1323;138704;-77
2021/11/18 22:23:05;;;;;;;15.20;8.80;;;;;;;7.45;82.25;100708.63;215918;1320;138946;-75
2021/11/18 22:28:08;;;;;;;10.90;8.20;;;;;;;7.45;81.91;100694.58;214555;1325;139111;-76
2021/11/18 22:33:14;;;;;;;18.30;9.20;;;;;;;7.41;82.68;100680.04;215180;1316;138715;-75
2021/11/18 22:38:16;;;;;;;13.60;9.10;;;;;;;7.32;83.27;100674.98;213055;1331;138908;-76
2021/11/18 22:43:21;;;;;;;13.60;9.60;;;;;;;7.36;82.87;100663.59;213905;1322;138634;-74
2021/11/18 22:48:23;;;;;;;15.20;9.30;;;;;;;7.42;82.05;100653.64;215643;1322;139057;-79
2021/11/18 22:53:26;;;;;;;13.40;9.80;;;;;;;7.44;81.63;100645.25;213782;1325;138813;-77
2021/11/18 22:58:34;;;;;;;15.20;9.10;;;;;;;7.49;81.60;100638.14;214689;1322;138881;-75
2021/11/18 23:03:40;;;;;;;12.40;8.50;;;;;;;7.44;82.12;100640.48;215228;1323;138983;-77
2021/11/18 23:08:50;;;;;;;15.50;9.50;;;;;;;7.40;82.61;100624.35;215437;1320;138664;-77
2021/11/18 23:13:57;;;;;;;10.80;8.30;;;;;;;7.39;82.73;100605.70;214631;1321;139225;-76
2021/11/18 23:19:03;;;;;;;14.40;9.30;;;;;;;7.35;83.18;100595.85;215262;1321;140217;-76
2021/11/18 23:24:08;;;;;;;10.40;8.00;;;;;;;7.30;83.80;100589.45;215085;1322;138590;-75
2021/11/18 23:29:21;;;;;;;10.20;8.30;;;;;;;7.30;83.98;100596.64;215569;1313;139400;-76
2021/11/18 23:34:32;;;;;;;12.00;8.60;;;;;;;7.34;83.61;100592.80;214622;1322;138862;-76
2021/11/18 23:39:41;;;;;;;12.70;8.60;;;;;;;7.35;83.25;100601.44;215347;1322;138990;-75
2021/11/18 23:44:43;;;;;;;11.90;8.50;;;;;;;7.37;83.23;100575.14;215931;1322;139238;-74
2021/11/18 23:49:44;;;;;;;11.60;8.10;;;;;;;7.38;82.83;100570.02;215667;1320;138507;-75